createdAt,value
2023-05-09T00:02:13.581Z,15.73
2023-05-09T00:05:16.667Z,17.90
2023-05-09T00:08:19.264Z,19.60
2023-05-09T00:11:22.444Z,23.40
2023-05-09T00:14:25.375Z,21.83
2023-05-09T00:17:28.661Z,20.33
2023-05-09T00:20:34.429Z,24.50
2023-05-09T00:23:38.176Z,19.13
2023-05-09T00:26:40.788Z,18.67
2023-05-09T00:29:43.707Z,21.23
2023-05-09T00:32:46.359Z,18.43
2023-05-09T00:35:49.290Z,17.27
2023-05-09T00:38:51.732Z,23.17
2023-05-09T00:41:56.727Z,20.87
2023-05-09T00:44:59.359Z,22.20
2023-05-09T00:48:02.697Z,20.67
2023-05-09T00:51:05.346Z,20.20
2023-05-09T00:54:09.272Z,19.13
2023-05-09T00:57:12.339Z,21.37
2023-05-09T01:00:15.645Z,18.70
2023-05-09T01:03:18.356Z,21.47
2023-05-09T01:06:52.800Z,20.07
2023-05-09T01:10:11.984Z,18.37
2023-05-09T01:13:26.225Z,24.23
2023-05-09T01:17:09.546Z,17.37
2023-05-09T01:20:27.380Z,18.37
2023-05-09T01:23:44.859Z,22.13
2023-05-09T01:26:48.160Z,19.33
2023-05-09T01:30:02.575Z,18.50
2023-05-09T01:33:08.200Z,20.80
2023-05-09T01:36:16.706Z,18.83
2023-05-09T01:39:20.234Z,20.63
2023-05-09T01:42:26.095Z,15.33
2023-05-09T01:45:30.743Z,19.33
2023-05-09T01:48:37.046Z,20.63
2023-05-09T01:51:43.658Z,17.70
2023-05-09T01:54:46.743Z,16.67
2023-05-09T01:57:50.705Z,19.67
2023-05-09T02:00:53.483Z,17.90
2023-05-09T02:03:57.967Z,23.37
2023-05-09T02:07:02.072Z,26.47
2023-05-09T02:10:07.236Z,21.03
2023-05-09T02:13:10.469Z,20.17
2023-05-09T02:16:14.047Z,16.90
2023-05-09T02:19:17.638Z,22.27
2023-05-09T02:22:20.546Z,18.43
2023-05-09T02:25:23.521Z,22.40
2023-05-09T02:28:27.451Z,22.13
2023-05-09T02:31:31.139Z,18.43
2023-05-09T02:34:34.013Z,22.53
2023-05-09T02:37:37.452Z,20.53
2023-05-09T02:40:42.425Z,19.70
2023-05-09T02:43:44.853Z,22.07
2023-05-09T02:46:47.637Z,22.30
2023-05-09T02:49:50.084Z,24.17
2023-05-09T02:52:52.535Z,23.43
2023-05-09T02:55:55.176Z,24.13
2023-05-09T02:58:57.560Z,24.33
2023-05-09T03:01:59.556Z,25.00
2023-05-09T03:05:03.603Z,21.67
2023-05-09T03:08:06.264Z,21.80
2023-05-09T03:11:08.885Z,21.00
2023-05-09T03:14:13.477Z,22.60
2023-05-09T03:17:21.360Z,22.37
2023-05-09T03:20:23.778Z,17.00
2023-05-09T03:23:26.516Z,20.37
2023-05-09T03:26:28.920Z,23.23
2023-05-09T03:29:31.597Z,21.13
2023-05-09T03:32:34.165Z,22.93
2023-05-09T03:35:36.757Z,24.80
2023-05-09T03:38:39.153Z,22.83
2023-05-09T03:41:43.847Z,28.57
2023-05-09T03:44:46.497Z,24.33
2023-05-09T03:47:49.418Z,22.40
2023-05-09T03:50:51.732Z,25.57
2023-05-09T03:53:54.518Z,22.53
2023-05-09T03:56:56.976Z,23.87
2023-05-09T03:59:59.781Z,34.10
2023-05-09T04:03:01.966Z,27.17
2023-05-09T04:06:06.311Z,36.63
2023-05-09T04:09:09.600Z,26.23
2023-05-09T04:12:12.222Z,33.40
2023-05-09T04:15:14.994Z,33.67
2023-05-09T04:18:17.611Z,36.43
2023-05-09T04:21:20.455Z,29.83
2023-05-09T04:24:23.169Z,31.60
2023-05-09T04:27:26.303Z,35.47
2023-05-09T04:30:29.427Z,36.73
2023-05-09T04:33:32.148Z,28.37
2023-05-09T04:36:34.875Z,33.33
2023-05-09T04:39:37.313Z,30.13
2023-05-09T04:42:40.857Z,28.60
2023-05-09T04:45:44.641Z,26.10
2023-05-09T04:48:47.839Z,23.00
2023-05-09T04:51:51.429Z,29.15
2023-05-09T04:54:54.575Z,19.88
2023-05-09T04:57:57.124Z,20.27
2023-05-09T05:01:00.037Z,24.23
2023-05-09T05:04:02.091Z,21.17
2023-05-09T05:07:05.557Z,18.15
2023-05-09T05:10:08.387Z,18.63
2023-05-09T05:13:11.402Z,19.10
2023-05-09T05:16:13.563Z,17.00
2023-05-09T05:19:16.456Z,23.90
2023-05-09T05:22:19.108Z,16.45
2023-05-09T05:25:22.692Z,16.25
2023-05-09T05:28:25.179Z,22.02
2023-05-09T05:31:31.344Z,22.17
2023-05-09T05:34:34.170Z,19.45
2023-05-09T05:37:44.367Z,20.65
2023-05-09T05:40:46.794Z,17.88
2023-05-09T05:43:50.132Z,20.83
2023-05-09T05:51:51.438Z,14.07
2023-05-09T06:04:08.696Z,13.75
2023-05-09T06:08:12.467Z,16.02
2023-05-09T06:11:46.934Z,10.50
2023-05-09T06:15:21.015Z,14.75
2023-05-09T06:19:08.709Z,9.20
2023-05-09T06:22:11.435Z,8.40
2023-05-09T06:25:13.581Z,9.32
2023-05-09T06:29:23.764Z,8.40
2023-05-09T06:32:46.557Z,10.45
2023-05-09T06:35:48.984Z,11.65
2023-05-09T06:38:51.025Z,9.88
2023-05-09T06:42:17.513Z,8.55
2023-05-09T06:45:45.527Z,7.85
2023-05-09T06:48:49.769Z,8.25
2023-05-09T06:52:07.839Z,7.40
2023-05-09T06:56:13.598Z,14.10
2023-05-09T06:59:46.847Z,7.30
2023-05-09T07:02:56.389Z,9.77
2023-05-09T07:05:59.917Z,8.30
2023-05-09T07:12:43.653Z,6.65
2023-05-09T07:16:12.448Z,7.20
2023-05-09T07:27:27.035Z,6.63
2023-05-09T07:34:52.318Z,7.65
2023-05-09T07:37:57.447Z,10.52
2023-05-09T07:45:05.780Z,5.05
2023-05-09T07:48:18.297Z,5.13
2023-05-09T07:52:09.817Z,5.07
2023-05-09T07:55:50.275Z,5.47
2023-05-09T07:58:55.051Z,6.63
2023-05-09T08:01:57.829Z,5.78
2023-05-09T08:05:00.682Z,6.18
2023-05-09T08:08:03.114Z,4.82
2023-05-09T08:11:06.344Z,5.00
2023-05-09T08:14:09.035Z,5.13
2023-05-09T08:17:11.704Z,15.18
2023-05-09T08:20:14.129Z,5.88
2023-05-09T08:23:17.028Z,6.72
2023-05-09T08:26:19.878Z,4.90
2023-05-09T08:29:22.709Z,4.65
2023-05-09T08:32:25.446Z,5.47
2023-05-09T08:35:39.855Z,8.98
2023-05-09T08:38:43.633Z,4.85
2023-05-09T08:42:35.489Z,6.35
2023-05-09T08:46:18.304Z,12.30
2023-05-09T08:49:44.061Z,6.75
2023-05-09T08:53:08.606Z,5.15
2023-05-09T08:56:11.835Z,8.25
2023-05-09T08:59:15.190Z,5.85
2023-05-09T09:02:18.839Z,4.55
2023-05-09T09:05:40.766Z,4.60
2023-05-09T09:09:01.931Z,9.57
2023-05-09T09:12:17.617Z,10.90
2023-05-09T09:15:36.339Z,6.85
2023-05-09T09:18:55.416Z,6.55
2023-05-09T09:22:21.449Z,4.30
2023-05-09T09:25:47.692Z,5.95
2023-05-09T09:33:35.327Z,6.70
2023-05-09T09:37:02.161Z,6.78
2023-05-09T09:40:05.128Z,8.20
2023-05-09T09:43:59.071Z,5.13
2023-05-09T09:56:35.573Z,2.90
2023-05-09T10:00:02.101Z,5.72
2023-05-09T10:04:46.324Z,3.67
2023-05-09T10:08:00.242Z,7.30
2023-05-09T10:11:37.321Z,5.88
2023-05-09T10:29:43.901Z,5.35
2023-05-09T11:00:42.620Z,5.38
2023-05-09T11:04:36.327Z,5.63
2023-05-09T11:07:40.308Z,14.68
2023-05-09T11:11:07.045Z,3.22
2023-05-09T11:15:14.965Z,4.47
2023-05-09T11:19:03.801Z,12.32
2023-05-09T11:23:12.230Z,4.82
2023-05-09T11:26:38.935Z,6.93
2023-05-09T11:29:53.209Z,5.90
2023-05-09T11:33:03.080Z,5.13
2023-05-09T11:36:31.200Z,5.57
2023-05-09T11:40:06.587Z,4.45
2023-05-09T11:47:33.384Z,7.82
2023-05-09T11:50:58.681Z,2.80
2023-05-09T11:58:53.113Z,3.83
2023-05-09T12:02:57.233Z,3.83
2023-05-09T12:15:29.662Z,6.22
2023-05-09T12:19:00.830Z,2.45
2023-05-09T12:23:05.142Z,4.28
2023-05-09T12:26:28.223Z,3.58
2023-05-09T12:33:40.535Z,7.45
2023-05-09T12:44:42.604Z,10.32
2023-05-09T12:47:52.113Z,10.88
2023-05-09T12:50:54.646Z,4.85
2023-05-09T12:54:24.774Z,6.85
2023-05-09T12:58:02.154Z,2.95
2023-05-09T13:02:08.228Z,5.85
2023-05-09T13:05:38.756Z,3.05
2023-05-09T13:09:16.603Z,57.88
2023-05-09T13:12:28.411Z,5.07
2023-05-09T13:15:39.549Z,5.85
2023-05-09T13:23:24.006Z,7.38
2023-05-09T13:26:56.195Z,9.45
2023-05-09T13:31:08.249Z,7.18
2023-05-09T13:34:10.688Z,8.30
2023-05-09T13:37:38.086Z,7.55
2023-05-09T13:41:25.083Z,16.00
2023-05-09T13:44:36.936Z,6.07
2023-05-09T13:47:39.048Z,4.53
2023-05-09T13:50:41.520Z,7.03
2023-05-09T13:53:43.729Z,18.77
2023-05-09T13:56:46.239Z,5.55
2023-05-09T14:00:47.085Z,10.30
2023-05-09T14:03:53.573Z,34.05
2023-05-09T14:08:22.948Z,15.65
2023-05-09T14:12:23.573Z,3.67
2023-05-09T14:16:07.746Z,5.32
2023-05-09T14:23:13.525Z,6.07
2023-05-09T14:27:28.468Z,9.88
2023-05-09T14:41:58.334Z,4.47
2023-05-09T14:50:39.924Z,6.30
2023-05-09T14:54:36.448Z,5.50
2023-05-09T14:58:34.413Z,2.35
2023-05-09T15:01:52.657Z,6.80
2023-05-09T15:05:32.900Z,4.28
2023-05-09T15:21:50.207Z,2.72
2023-05-09T15:29:02.237Z,4.55
2023-05-09T15:32:04.658Z,13.38
2023-05-09T15:35:18.104Z,5.75
2023-05-09T15:39:03.053Z,4.60
2023-05-09T15:43:32.740Z,7.00
2023-05-09T15:50:27.122Z,9.65
2023-05-09T15:53:46.555Z,16.95
2023-05-09T15:57:12.196Z,4.18
2023-05-09T16:12:35.862Z,6.55
2023-05-09T16:16:47.518Z,8.60
2023-05-09T16:20:21.683Z,7.75
2023-05-09T16:24:47.184Z,4.80
2023-05-09T16:28:06.913Z,11.57
2023-05-09T17:13:55.515Z,5.05
2023-05-09T17:18:36.992Z,5.72
2023-05-09T17:42:27.010Z,6.40
2023-05-09T17:46:29.622Z,7.93
2023-05-09T17:49:39.967Z,4.00
2023-05-09T17:53:01.796Z,6.20
2023-05-09T18:15:49.754Z,6.65
2023-05-09T18:27:33.478Z,5.43
2023-05-09T18:30:55.275Z,5.95
2023-05-09T18:34:35.060Z,11.23
2023-05-09T18:38:36.946Z,12.82
2023-05-09T18:54:56.876Z,10.82
2023-05-09T18:59:08.631Z,8.35
2023-05-09T19:02:47.030Z,7.40
2023-05-09T19:06:32.926Z,11.37
2023-05-09T19:10:20.121Z,7.27
2023-05-09T19:14:05.915Z,6.00
2023-05-09T19:17:53.957Z,8.27
2023-05-09T19:29:04.554Z,6.43
2023-05-09T19:32:42.493Z,11.43
2023-05-09T19:36:18.447Z,6.90
2023-05-09T19:39:44.698Z,6.37
2023-05-09T19:42:52.051Z,13.67
2023-05-09T19:46:07.157Z,7.90
2023-05-09T19:49:22.853Z,17.33
2023-05-09T19:56:40.743Z,7.87
2023-05-09T20:00:10.262Z,6.93
2023-05-09T20:04:03.010Z,5.70
2023-05-09T20:07:24.888Z,12.27
2023-05-09T20:10:56.070Z,9.17
2023-05-09T20:18:28.046Z,13.67
2023-05-09T20:22:00.960Z,9.13
2023-05-09T20:25:16.079Z,10.90
2023-05-09T20:29:03.982Z,7.13
2023-05-09T20:32:19.599Z,7.43
2023-05-09T20:35:49.140Z,8.50
2023-05-09T20:38:51.935Z,6.63
2023-05-09T20:41:55.827Z,5.40
2023-05-09T20:44:58.496Z,7.50
2023-05-09T20:48:01.894Z,6.63
2023-05-09T20:51:04.545Z,10.43
2023-05-09T20:54:07.371Z,9.70
2023-05-09T20:57:09.906Z,6.80
2023-05-09T21:00:12.587Z,8.60
2023-05-09T21:03:15.732Z,6.20
2023-05-09T21:06:18.151Z,7.10
2023-05-09T21:09:21.025Z,8.97
2023-05-09T21:12:24.223Z,7.40
2023-05-09T21:15:31.082Z,10.23
2023-05-09T21:18:33.912Z,4.70
2023-05-09T21:21:40.364Z,5.30
2023-05-09T21:24:44.068Z,7.10
2023-05-09T21:27:46.825Z,5.73
2023-05-09T21:30:55.925Z,9.27
2023-05-09T21:33:59.511Z,6.30
2023-05-09T21:37:01.826Z,7.00
2023-05-09T21:40:12.356Z,8.87
2023-05-09T21:43:15.639Z,8.60
2023-05-09T21:46:18.183Z,7.03
2023-05-09T21:49:21.654Z,11.40
2023-05-09T21:52:24.324Z,7.30
2023-05-09T21:55:26.676Z,6.63
2023-05-09T21:58:29.010Z,6.60
2023-05-09T22:01:31.338Z,8.23
2023-05-09T22:04:34.035Z,6.77
2023-05-09T22:07:36.343Z,6.93
2023-05-09T22:10:38.796Z,7.13
2023-05-09T22:13:41.270Z,7.63
2023-05-09T22:16:44.431Z,6.90
2023-05-09T22:19:46.554Z,5.33
2023-05-09T22:22:48.875Z,6.03
2023-05-09T22:44:39.526Z,8.03
2023-05-09T22:47:41.924Z,6.87
2023-05-09T22:50:44.436Z,6.40
2023-05-09T22:53:46.878Z,7.60
2023-05-09T22:56:49.058Z,7.03
2023-05-09T22:59:51.513Z,8.80
2023-05-09T23:02:53.583Z,13.73
2023-05-09T23:05:57.034Z,13.60
2023-05-09T23:08:59.673Z,11.47
2023-05-09T23:12:02.790Z,10.13
2023-05-09T23:15:06.372Z,12.60
2023-05-09T23:18:09.014Z,14.23
2023-05-09T23:21:11.918Z,9.07
2023-05-09T23:24:14.344Z,12.57
2023-05-09T23:27:16.625Z,10.73
2023-05-09T23:30:37.938Z,10.07
2023-05-09T23:33:40.007Z,12.20
2023-05-09T23:36:42.498Z,10.67
2023-05-09T23:39:44.575Z,10.43
2023-05-09T23:42:46.997Z,12.97
2023-05-09T23:45:49.624Z,8.63
2023-05-09T23:48:52.042Z,11.50
